Stunt Ranch Reserve, Santa Monica Mtns, California Weather observations

Data are for 10 minute period ending at time listed.
 Day   Time   Solar   Ave.   Ave.  Ave.  Vector  Max.   Baro.   Total    
  of    of     Rad.   Air    Rel.  Wind   Wind   Wind  Press.  Precip.   
Year   Day            Temp.  Hum.  Speed  Dir.   Gust                    
2018   (PST)  Kw/m2    F      %     mph   deg.    mph    mb.     in.     
-------------------------------------------------------------------------
 175    0:00   0.00   58.1    90    2.8    96     6.1   965.4    0.00 
 175    0:10   0.00   58.2    89    3.8    79     7.2   965.4    0.00 
 175    0:20   0.00   58.2    89    4.2    73     7.0   965.4    0.00 
 175    0:30   0.00   58.1    89    3.8    83     8.0   965.4    0.00 
 175    0:40   0.00   58.0    89    4.4    92     7.9   965.5    0.00 
 175    0:50   0.00   58.0    89    3.5    90     7.9   965.5    0.00 
 175    1:00   0.00   58.0    88    3.7    85     6.9   965.5    0.00 
 175    1:10   0.00   58.1    88    4.0    96     8.5   965.5    0.00 
 175    1:20   0.00   58.0    88    4.5   100     8.5   965.5    0.00 
 175    1:30   0.00   58.0    89    3.6    95     5.6   965.4    0.00 
 175    1:40   0.00   58.0    89    3.7    89     7.2   965.3    0.00 
 175    1:50   0.00   58.0    89    3.2   114     6.1   965.3    0.00 
 175    2:00   0.00   58.0    89    4.2   103     6.8   965.3    0.00 
 175    2:10   0.00   57.8    90    4.1    98     6.5   965.3    0.00 
 175    2:20   0.00   57.7    90    4.3    97     7.7   965.4    0.00 
 175    2:30   0.00   57.7    90    3.9    82     8.3   965.3    0.00 
 175    2:40   0.00   57.7    90    3.2   106     6.2   965.3    0.00 
 175    2:50   0.00   57.7    90    2.1   101     5.6   965.3    0.00 
 175    3:00   0.00   57.7    89    3.0   123     5.6   965.4    0.00 
 175    3:10   0.00   57.6    90    2.7    83     5.0   965.4    0.00 
 175    3:20   0.00   57.6    90    2.8   117     5.6   965.5    0.00 
 175    3:30   0.00   57.5    91    4.0   104     6.8   965.6    0.00 
 175    3:40   0.00   57.5    91    1.8    98     5.6   965.6    0.00 
 175    3:50   0.00   57.6    91    1.2    74     3.7   965.7    0.00 
 175    4:00   0.00   57.6    92    1.7    87     3.9   965.7    0.00 
 175    4:10   0.00   57.7    92    2.4    91     5.3   965.8    0.00 
 175    4:20   0.00   57.6    92    3.1    85     5.9   965.8    0.00 
 175    4:30   0.00   57.6    92    3.5    81     6.7   965.9    0.00 
 175    4:40   0.00   57.5    93    4.8   104     7.7   966.1    0.00 
 175    4:50   0.00   57.5    93    3.5    94     7.0   966.2    0.00 
 175    5:00   0.00   57.5    93    2.5    95     7.2   966.3    0.00 
 175    5:10   0.01   57.5    93    3.5    91     7.6   966.3    0.00 
 175    5:20   0.01   57.5    92    3.9    75     7.2   966.4    0.00 
 175    5:30   0.01   57.6    92    3.3    99     5.8   966.4    0.00 
 175    5:40   0.01   57.7    92    3.4   119     7.4   966.5    0.00 
 175    5:50   0.02   57.8    92    3.0    78     5.4   966.6    0.00 
 175    6:00   0.03   57.8    92    3.2    98     6.4   966.7    0.00 
 175    6:10   0.03   58.0    91    3.1   103     7.2   966.7    0.00 
 175    6:20   0.04   58.2    91    3.8    96     7.7   966.8    0.00 
 175    6:30   0.05   58.2    90    5.4    98     8.8   966.8    0.00 
 175    6:40   0.06   58.4    90    3.4    96     6.7   967.0    0.00 
 175    6:50   0.06   58.6    89    3.6    92     8.8   967.0    0.00 
 175    7:00   0.07   59.0    88    1.8    51     4.2   967.2    0.00 
 175    7:10   0.07   59.3    88    2.6    82     5.0   967.3    0.00 
 175    7:20   0.07   59.7    87    2.3    59     5.4   967.4    0.00 
 175    7:30   0.07   59.6    87    2.7   158     5.6   967.5    0.00 
 175    7:40   0.05   59.3    89    3.0   118     8.0   967.7    0.00 
 175    7:50   0.07   58.7    91    4.3   130     9.1   967.8    0.00 
 175    8:00   0.08   58.6    92    2.5   134     6.4   967.9    0.00 
 175    8:10   0.10   58.9    92    3.4    86     6.1   967.9    0.00 
 175    8:20   0.11   59.1    91    4.3    80     8.8   967.9    0.00 
 175    8:30   0.14   59.4    90    4.3   116     7.5   968.0    0.00 
 175    8:40   0.17   60.0    87    6.2    81     9.1   968.0    0.00 
 175    8:50   0.17   60.2    86    5.7    83    12.6   968.1    0.00 
 175    9:00   0.20   60.8    84    5.0   107     9.7   968.2    0.00 
 175    9:10   0.22   61.3    82    4.6   105     9.5   968.2    0.00 
 175    9:20   0.24   61.7    81    3.5    93     8.9   968.2    0.00 
 175    9:30   0.24   61.6    81    5.4    72    10.2   968.3    0.00 
 175    9:40   0.23   62.0    80    4.8    83    13.1   968.5    0.00 
 175    9:50   0.23   62.3    80    4.0   109     7.3   968.5    0.00 
 175   10:00   0.25   62.1    80    4.3   146     9.1   968.6    0.00 
 175   10:10   0.27   61.8    81    4.1   152     8.4   968.7    0.00 
 175   10:20   0.32   62.0    80    5.3   156     9.8   968.6    0.00 
 175   10:30   0.39   62.0    80    6.2   150    10.4   968.7    0.00 
 175   10:40   0.45   63.3    76    4.0   150     8.3   968.7    0.00 
 175   10:50   0.43   64.0    74    5.3   163    10.0   968.8    0.00 
 175   11:00   0.68   65.8    71    5.4   169     8.5   968.7    0.00 
 175   11:10   0.92   68.1    66    5.3   166    10.5   968.7    0.00 
 175   11:20   1.01   68.8    64    5.9   178    10.2   968.7    0.00 
 175   11:30   0.99   69.1    63    4.1   178     9.9   968.8    0.00 
 175   11:40   0.98   70.4    60    3.4   163     7.7   968.8    0.00 
 175   11:50   0.96   71.9    58    3.5   351     9.1   968.6    0.00 
 175   12:00   0.96   74.1    54    4.4   328     8.9   968.5    0.00 
 175   12:10   0.96   75.0    51    5.4   347    11.1   968.5    0.00 
 175   12:20   0.96   75.2    52    5.0   282    10.2   968.4    0.00 
 175   12:30   0.95   74.8    52    3.9   292     9.1   968.4    0.00 
 175   12:40   0.95   73.9    54    4.2   296     9.0   968.4    0.00 
 175   12:50   0.91   75.4    52    4.1   298    10.2   968.4    0.00 
 175   13:00   0.94   76.7    50    5.0   284    11.1   968.4    0.00 
 175   13:10   0.93   76.2    50    4.8   291     9.4   968.3    0.00 
 175   13:20   0.92   76.2    50    5.3   285    11.3   968.3    0.00 
 175   13:30   0.90   76.7    49    5.3   285    10.2   968.2    0.00 
 175   13:40   0.89   77.8    48    5.6   282    10.2   968.1    0.00 
 175   13:50   0.87   78.6    47    4.8   288     9.4   968.1    0.00 
 175   14:00   0.86   78.3    47    5.4   286    10.4   968.1    0.00 
 175   14:10   0.83   78.0    47    4.9   282     9.0   968.0    0.00 
 175   14:20   0.81   79.3    46    5.9   278    11.1   967.9    0.00 
 175   14:30   0.79   79.6    45    4.7   286    11.0   967.9    0.00 
 175   14:40   0.77   79.6    45    5.9   282    10.7   967.8    0.00 
 175   14:50   0.74   80.2    44    5.1   282     9.8   967.8    0.00 
 175   15:00   0.71   80.8    43    5.0   284     9.4   967.7    0.00 
 175   15:10   0.69   81.2    42    4.2   283     9.6   967.6    0.00 
 175   15:20   0.66   81.5    42    4.3   290     8.4   967.5    0.00 
 175   15:30   0.63   82.0    41    4.1   288     8.4   967.5    0.00 
 175   15:40   0.61   82.3    41    3.7   293     8.3   967.5    0.00 
 175   15:50   0.58   80.3    43    3.8   300     8.4   967.4    0.00 
 175   16:00   0.55   80.4    43    4.4   290     7.7   967.2    0.00 
 175   16:10   0.52   79.6    44    3.5   291     7.0   967.0    0.00 
 175   16:20   0.48   78.3    45    3.3   299     7.5   966.9    0.00 
 175   16:30   0.45   79.6    43    3.6   293     7.0   966.8    0.00 
 175   16:40   0.42   78.4    44    4.4   278     7.2   966.7    0.00 
 175   16:50   0.39   77.0    46    4.3   280     7.8   966.6    0.00 
 175   17:00   0.35   78.7    43    5.2   278     8.5   966.6    0.00 
 175   17:10   0.32   77.5    45    3.5   276     8.3   966.5    0.00 
 175   17:20   0.29   75.1    49    4.0   278     7.6   966.6    0.00 
 175   17:30   0.26   74.5    50    3.4   280     6.9   966.6    0.00 
 175   17:40   0.22   74.4    50    3.0   286     6.0   966.6    0.00 
 175   17:50   0.19   73.6    51    2.8   291     6.4   966.6    0.00 
 175   18:00   0.10   71.8    54    1.9   291     4.5   966.6    0.00 
 175   18:10   0.06   70.7    56    3.1   288     5.9   966.7    0.00 
 175   18:20   0.04   69.6    59    2.7   288     5.5   966.7    0.00 
 175   18:30   0.02   68.4    61    3.0   284     5.0   966.7    0.00 
 175   18:40   0.02   67.8    62    3.1   281     5.0   966.8    0.00 
 175   18:50   0.01   66.3    65    2.3   288     5.0   966.9    0.00 
 175   19:00   0.01   64.8    68    1.3   282     3.2   967.0    0.00 
 175   19:10   0.01   63.9    69    0.2   246     1.2   967.0    0.00 
 175   19:20   0.00   63.0    72    0.5   145     1.5   967.1    0.00 
 175   19:30   0.00   62.7    72    1.1   134     2.0   967.2    0.00 
 175   19:40   0.00   62.3    72    0.5   298     2.0   967.3    0.00 
 175   19:50   0.00   61.8    73    0.1   254     1.5   967.3    0.00 
 175   20:00   0.00   61.4    74    0.1   317     1.3   967.4    0.00 
 175   20:10   0.00   60.7    76    0.5   316     1.3   967.5    0.00 
 175   20:20   0.00   60.2    76    0.0   319     0.6   967.6    0.00 
 175   20:30   0.00   59.8    77    1.4   134     2.8   967.8    0.00 
 175   20:40   0.00   60.0    76    1.1   143     2.9   967.9    0.00 
 175   20:50   0.00   59.6    77    0.6   313     1.5   968.0    0.00 
 175   21:00   0.00   59.9    77    1.0   206     1.7   968.1    0.00 
 175   21:10   0.00   59.6    77    0.1   252     0.9   968.0    0.00 
 175   21:20   0.00   59.4    78    0.4   258     1.5   968.0    0.00 
 175   21:30   0.00   59.3    79    0.0    42     0.6   968.0    0.00 
 175   21:40   0.00   59.1    80    0.9   220     2.3   967.9    0.00 
 175   21:50   0.00   58.7    80    0.6   262     2.1   968.0    0.00 
 175   22:00   0.00   58.6    81    0.8   240     1.6   968.0    0.00 
 175   22:10   0.00   58.4    82    1.2   247     1.9   968.0    0.00 
 175   22:20   0.00   58.4    83    0.5   266     1.4   968.0    0.00 
 175   22:30   0.00   57.7    83    0.0     0     0.0   967.9    0.00 
 175   22:40   0.00   57.6    84    0.0    60     0.6   967.9    0.00 
 175   22:50   0.00   57.3    85    0.0   348     0.5   967.9    0.00 
 175   23:00   0.00   57.0    86    0.2   305     0.9   968.0    0.00 

Return to Stunt Ranch Reserve graphs page.


Western Regional Climate Center,wrcc@dri.edu